sensor_id;sensor_type;location;lat;lon;timestamp;pressure;altitude;pressure_sealevel;temperature;humidity
34983;BME280;21187;50.976;13.720;2022-07-10T00:01:53;98718.03;;;19.36;46.53
34983;BME280;21187;50.976;13.720;2022-07-10T00:06:55;98710.19;;;19.35;45.88
34983;BME280;21187;50.976;13.720;2022-07-10T00:11:57;98706.28;;;19.28;45.57
34983;BME280;21187;50.976;13.720;2022-07-10T00:16:59;98711.41;;;19.23;45.03
34983;BME280;21187;50.976;13.720;2022-07-10T00:22:01;98715.31;;;19.15;44.72
34983;BME280;21187;50.976;13.720;2022-07-10T00:27:03;98719.25;;;19.03;44.62
34983;BME280;21187;50.976;13.720;2022-07-10T00:32:06;98717.28;;;18.96;44.51
34983;BME280;21187;50.976;13.720;2022-07-10T00:37:08;98711.41;;;18.94;43.94
34983;BME280;21187;50.976;13.720;2022-07-10T00:42:12;98718.44;;;18.88;43.95
34983;BME280;21187;50.976;13.720;2022-07-10T00:47:15;98725.88;;;18.76;43.71
34983;BME280;21187;50.976;13.720;2022-07-10T00:52:21;98727.84;;;18.72;43.86
34983;BME280;21187;50.976;13.720;2022-07-10T00:57:23;98720.00;;;18.67;43.69
34983;BME280;21187;50.976;13.720;2022-07-10T01:02:25;98718.81;;;18.54;43.52
34983;BME280;21187;50.976;13.720;2022-07-10T01:07:27;98719.97;;;18.49;43.45
34983;BME280;21187;50.976;13.720;2022-07-10T01:12:30;98719.56;;;18.43;43.40
34983;BME280;21187;50.976;13.720;2022-07-10T01:17:33;98724.22;;;18.25;43.59
34983;BME280;21187;50.976;13.720;2022-07-10T01:22:38;98717.16;;;18.17;43.76
34983;BME280;21187;50.976;13.720;2022-07-10T01:27:40;98718.69;;;18.10;43.61
34983;BME280;21187;50.976;13.720;2022-07-10T01:32:42;98723.38;;;18.06;43.51
34983;BME280;21187;50.976;13.720;2022-07-10T01:37:44;98714.78;;;18.04;43.43
34983;BME280;21187;50.976;13.720;2022-07-10T01:42:46;98718.69;;;18.03;43.38
34983;BME280;21187;50.976;13.720;2022-07-10T01:47:48;98711.25;;;18.00;43.59
34983;BME280;21187;50.976;13.720;2022-07-10T01:52:50;98703.41;;;17.95;43.65
34983;BME280;21187;50.976;13.720;2022-07-10T01:57:52;98704.50;;;17.87;43.62
34983;BME280;21187;50.976;13.720;2022-07-10T02:02:54;98698.56;;;17.70;44.02
34983;BME280;21187;50.976;13.720;2022-07-10T02:08:29;98698.47;;;17.52;44.28
34983;BME280;21187;50.976;13.720;2022-07-10T02:13:31;98692.50;;;17.32;44.64
34983;BME280;21187;50.976;13.720;2022-07-10T02:18:33;98687.41;;;17.30;44.99
34983;BME280;21187;50.976;13.720;2022-07-10T02:23:35;98696.41;;;17.31;44.97
34983;BME280;21187;50.976;13.720;2022-07-10T02:28:37;98683.81;;;17.16;45.35
34983;BME280;21187;50.976;13.720;2022-07-10T02:33:40;98681.53;;;17.25;45.50
34983;BME280;21187;50.976;13.720;2022-07-10T02:38:42;98673.69;;;17.27;45.41
34983;BME280;21187;50.976;13.720;2022-07-10T02:43:43;98668.91;;;17.09;45.83
34983;BME280;21187;50.976;13.720;2022-07-10T02:48:45;98674.31;;;17.02;46.16
34983;BME280;21187;50.976;13.720;2022-07-10T02:53:47;98673.16;;;17.03;46.30
34983;BME280;21187;50.976;13.720;2022-07-10T02:58:49;98669.66;;;17.06;45.86
34983;BME280;21187;50.976;13.720;2022-07-10T03:03:51;98674.28;;;16.95;46.33
34983;BME280;21187;50.976;13.720;2022-07-10T03:08:53;98668.31;;;16.86;46.47
34983;BME280;21187;50.976;13.720;2022-07-10T03:13:55;98674.94;;;16.85;46.65
34983;BME280;21187;50.976;13.720;2022-07-10T03:18:56;98674.94;;;16.85;46.53
34983;BME280;21187;50.976;13.720;2022-07-10T03:23:58;98673.78;;;16.86;46.49
34983;BME280;21187;50.976;13.720;2022-07-10T03:29:00;98661.59;;;16.72;46.95
34983;BME280;21187;50.976;13.720;2022-07-10T03:34:02;98664.66;;;16.67;47.00
34983;BME280;21187;50.976;13.720;2022-07-10T03:39:05;98660.00;;;16.71;46.82
34983;BME280;21187;50.976;13.720;2022-07-10T03:44:06;98657.66;;;16.70;46.97
34983;BME280;21187;50.976;13.720;2022-07-10T03:49:08;98650.28;;;16.77;46.68
34983;BME280;21187;50.976;13.720;2022-07-10T03:54:10;98658.50;;;16.77;46.82
34983;BME280;21187;50.976;13.720;2022-07-10T03:59:12;98646.81;;;16.84;46.59
34983;BME280;21187;50.976;13.720;2022-07-10T04:04:14;98656.97;;;16.84;46.46
34983;BME280;21187;50.976;13.720;2022-07-10T04:09:16;98656.97;;;16.84;46.41
34983;BME280;21187;50.976;13.720;2022-07-10T04:14:18;98657.72;;;16.80;46.62
34983;BME280;21187;50.976;13.720;2022-07-10T04:19:20;98657.34;;;16.82;46.58
34983;BME280;21187;50.976;13.720;2022-07-10T04:24:28;98649.88;;;16.75;46.61
34983;BME280;21187;50.976;13.720;2022-07-10T04:29:30;98649.00;;;16.64;46.91
34983;BME280;21187;50.976;13.720;2022-07-10T04:34:33;98651.31;;;16.58;47.19
34983;BME280;21187;50.976;13.720;2022-07-10T04:39:35;98642.59;;;16.45;47.25
34983;BME280;21187;50.976;13.720;2022-07-10T04:44:39;98648.94;;;16.57;47.27
34983;BME280;21187;50.976;13.720;2022-07-10T04:49:41;98647.44;;;16.63;47.16
34983;BME280;21187;50.976;13.720;2022-07-10T04:54:43;98650.53;;;16.61;47.33
34983;BME280;21187;50.976;13.720;2022-07-10T04:59:44;98652.19;;;16.70;47.04
34983;BME280;21187;50.976;13.720;2022-07-10T05:04:46;98651.03;;;16.74;47.30
34983;BME280;21187;50.976;13.720;2022-07-10T05:09:48;98642.09;;;16.77;47.08
34983;BME280;21187;50.976;13.720;2022-07-10T05:14:50;98644.53;;;16.90;46.98
34983;BME280;21187;50.976;13.720;2022-07-10T05:19:52;98642.63;;;16.94;47.36
34983;BME280;21187;50.976;13.720;2022-07-10T05:24:55;98647.75;;;17.06;46.85
34983;BME280;21187;50.976;13.720;2022-07-10T05:29:56;98648.56;;;17.07;47.02
34983;BME280;21187;50.976;13.720;2022-07-10T05:34:58;98647.00;;;17.09;46.74
34983;BME280;21187;50.976;13.720;2022-07-10T05:40:01;98648.50;;;16.96;47.13
34983;BME280;21187;50.976;13.720;2022-07-10T05:45:03;98645.44;;;17.08;46.90
34983;BME280;21187;50.976;13.720;2022-07-10T05:50:07;98643.91;;;17.18;46.82
34983;BME280;21187;50.976;13.720;2022-07-10T05:55:10;98647.84;;;17.21;46.76
34983;BME280;21187;50.976;13.720;2022-07-10T06:00:12;98657.16;;;17.09;47.05
34983;BME280;21187;50.976;13.720;2022-07-10T06:05:14;98659.69;;;16.84;48.50
34983;BME280;21187;50.976;13.720;2022-07-10T06:10:16;98663.13;;;16.73;48.92
34983;BME280;21187;50.976;13.720;2022-07-10T06:15:18;98666.25;;;16.68;49.30
34983;BME280;21187;50.976;13.720;2022-07-10T06:20:20;98674.38;;;16.61;49.92
34983;BME280;21187;50.976;13.720;2022-07-10T06:25:22;98671.16;;;16.52;50.48
34983;BME280;21187;50.976;13.720;2022-07-10T06:30:24;98670.69;;;16.42;51.11
34983;BME280;21187;50.976;13.720;2022-07-10T06:35:44;98663.00;;;16.55;51.85
34983;BME280;21187;50.976;13.720;2022-07-10T06:40:47;98667.06;;;16.72;51.55
34983;BME280;21187;50.976;13.720;2022-07-10T06:45:49;98672.53;;;16.72;51.72
34983;BME280;21187;50.976;13.720;2022-07-10T06:50:51;98670.00;;;16.53;52.33
34983;BME280;21187;50.976;13.720;2022-07-10T06:55:53;98663.03;;;16.59;52.15
34983;BME280;21187;50.976;13.720;2022-07-10T07:00:55;98664.88;;;16.47;52.59
34983;BME280;21187;50.976;13.720;2022-07-10T07:05:57;98668.78;;;16.46;52.45
34983;BME280;21187;50.976;13.720;2022-07-10T07:10:59;98668.38;;;16.44;52.44
34983;BME280;21187;50.976;13.720;2022-07-10T07:16:01;98673.00;;;16.40;52.39
34983;BME280;21187;50.976;13.720;2022-07-10T07:21:07;98677.66;;;16.33;52.54
34983;BME280;21187;50.976;13.720;2022-07-10T07:26:28;98666.34;;;15.96;53.11
34983;BME280;21187;50.976;13.720;2022-07-10T07:31:30;98667.13;;;15.97;53.06
34983;BME280;21187;50.976;13.720;2022-07-10T07:36:32;98675.00;;;16.02;52.49
34983;BME280;21187;50.976;13.720;2022-07-10T07:41:34;98676.81;;;16.28;51.94
34983;BME280;21187;50.976;13.720;2022-07-10T07:46:36;98671.94;;;16.52;51.61
34983;BME280;21187;50.976;13.720;2022-07-10T07:51:38;98675.56;;;16.63;51.18
34983;BME280;21187;50.976;13.720;2022-07-10T07:56:40;98668.03;;;16.98;51.29
34983;BME280;21187;50.976;13.720;2022-07-10T08:01:42;98665.22;;;17.54;50.41
34983;BME280;21187;50.976;13.720;2022-07-10T08:06:52;98659.94;;;18.01;49.91
34983;BME280;21187;50.976;13.720;2022-07-10T08:11:55;98683.13;;;18.32;48.94
34983;BME280;21187;50.976;13.720;2022-07-10T08:16:57;98675.31;;;18.41;48.64
34983;BME280;21187;50.976;13.720;2022-07-10T08:21:59;98664.34;;;18.63;48.02
34983;BME280;21187;50.976;13.720;2022-07-10T08:27:01;98656.91;;;18.74;47.33
34983;BME280;21187;50.976;13.720;2022-07-10T08:32:03;98652.97;;;19.08;47.04
34983;BME280;21187;50.976;13.720;2022-07-10T08:37:06;98649.84;;;18.95;46.30
34983;BME280;21187;50.976;13.720;2022-07-10T08:42:10;98659.66;;;19.03;46.01
34983;BME280;21187;50.976;13.720;2022-07-10T08:47:12;98645.88;;;19.21;45.18
34983;BME280;21187;50.976;13.720;2022-07-10T08:57:38;98653.78;;;18.90;44.11
34983;BME280;21187;50.976;13.720;2022-07-10T09:02:41;98654.16;;;19.00;44.32
34983;BME280;21187;50.976;13.720;2022-07-10T09:07:43;98652.59;;;18.95;43.99
34983;BME280;21187;50.976;13.720;2022-07-10T09:12:59;98645.16;;;18.70;44.40
34983;BME280;21187;50.976;13.720;2022-07-10T09:18:05;98647.47;;;18.65;44.70
34983;BME280;21187;50.976;13.720;2022-07-10T09:23:18;98649.44;;;18.86;43.97
34983;BME280;21187;50.976;13.720;2022-07-10T09:28:22;98639.63;;;19.14;43.46
34983;BME280;21187;50.976;13.720;2022-07-10T09:33:25;98648.16;;;19.41;42.82
34983;BME280;21187;50.976;13.720;2022-07-10T09:38:47;98633.97;;;19.57;42.41
34983;BME280;21187;50.976;13.720;2022-07-10T09:43:55;98640.22;;;19.68;41.33
34983;BME280;21187;50.976;13.720;2022-07-10T09:49:05;98646.88;;;19.74;41.11
34983;BME280;21187;50.976;13.720;2022-07-10T09:54:09;98628.53;;;19.50;40.16
34983;BME280;21187;50.976;13.720;2022-07-10T09:59:13;98628.91;;;19.52;40.62
34983;BME280;21187;50.976;13.720;2022-07-10T10:04:21;98645.81;;;19.39;39.89
34983;BME280;21187;50.976;13.720;2022-07-10T10:09:34;98638.03;;;19.27;40.43
34983;BME280;21187;50.976;13.720;2022-07-10T10:14:39;98633.31;;;19.24;40.42
34983;BME280;21187;50.976;13.720;2022-07-10T10:19:42;98648.16;;;19.37;40.32
34983;BME280;21187;50.976;13.720;2022-07-10T10:25:04;98641.91;;;19.40;39.83
34983;BME280;21187;50.976;13.720;2022-07-10T10:30:07;98632.38;;;19.67;39.76
34983;BME280;21187;50.976;13.720;2022-07-10T10:35:09;98640.97;;;19.79;39.12
34983;BME280;21187;50.976;13.720;2022-07-10T10:40:31;98637.63;;;20.17;39.14
34983;BME280;21187;50.976;13.720;2022-07-10T10:45:33;98652.94;;;20.22;38.66
34983;BME280;21187;50.976;13.720;2022-07-10T11:01:27;98653.97;;;19.68;40.41
34983;BME280;21187;50.976;13.720;2022-07-10T11:06:50;98655.94;;;19.64;40.68
34983;BME280;21187;50.976;13.720;2022-07-10T11:12:05;98647.31;;;19.62;41.09
34983;BME280;21187;50.976;13.720;2022-07-10T11:17:08;98661.47;;;19.53;41.53
34983;BME280;21187;50.976;13.720;2022-07-10T11:23:00;98656.78;;;19.50;41.66
34983;BME280;21187;50.976;13.720;2022-07-10T11:28:09;98659.16;;;19.48;41.79
34983;BME280;21187;50.976;13.720;2022-07-10T11:33:11;98674.00;;;19.58;41.44
34983;BME280;21187;50.976;13.720;2022-07-10T11:38:24;98660.72;;;19.38;41.50
34983;BME280;21187;50.976;13.720;2022-07-10T11:43:27;98657.56;;;19.51;41.42
34983;BME280;21187;50.976;13.720;2022-07-10T11:48:29;98654.31;;;19.70;40.46
34983;BME280;21187;50.976;13.720;2022-07-10T11:53:31;98657.44;;;19.83;40.06
34983;BME280;21187;50.976;13.720;2022-07-10T11:58:33;98650.69;;;19.99;40.26
34983;BME280;21187;50.976;13.720;2022-07-10T12:03:35;98646.97;;;20.27;39.69
34983;BME280;21187;50.976;13.720;2022-07-10T12:08:45;98655.09;;;20.49;39.51
34983;BME280;21187;50.976;13.720;2022-07-10T12:13:50;98649.25;;;20.39;38.97
34983;BME280;21187;50.976;13.720;2022-07-10T12:18:52;98655.78;;;20.04;39.31
34983;BME280;21187;50.976;13.720;2022-07-10T12:23:55;98670.78;;;19.77;39.83
34983;BME280;21187;50.976;13.720;2022-07-10T12:28:58;98663.03;;;19.58;39.63
34983;BME280;21187;50.976;13.720;2022-07-10T12:34:04;98674.00;;;19.58;39.88
34983;BME280;21187;50.976;13.720;2022-07-10T12:39:06;98682.25;;;19.58;39.34
34983;BME280;21187;50.976;13.720;2022-07-10T12:44:08;98685.00;;;19.58;39.39
34983;BME280;21187;50.976;13.720;2022-07-10T12:49:11;98691.25;;;19.62;39.44
34983;BME280;21187;50.976;13.720;2022-07-10T12:54:33;98676.34;;;19.63;40.10
34983;BME280;21187;50.976;13.720;2022-07-10T12:59:37;98677.13;;;19.63;40.06
34983;BME280;21187;50.976;13.720;2022-07-10T13:04:39;98685.75;;;19.69;40.20
34983;BME280;21187;50.976;13.720;2022-07-10T13:09:41;98680.19;;;19.91;40.16
34983;BME280;21187;50.976;13.720;2022-07-10T13:14:45;98685.88;;;20.29;39.34
34983;BME280;21187;50.976;13.720;2022-07-10T13:19:48;98678.94;;;20.70;38.90
34983;BME280;21187;50.976;13.720;2022-07-10T13:24:49;98660.63;;;20.94;38.12
34983;BME280;21187;50.976;13.720;2022-07-10T13:29:51;98662.94;;;20.99;37.59
34983;BME280;21187;50.976;13.720;2022-07-10T13:34:53;98648.81;;;20.97;37.26
34983;BME280;21187;50.976;13.720;2022-07-10T13:39:55;98654.69;;;20.95;37.40
34983;BME280;21187;50.976;13.720;2022-07-10T13:44:57;98640.56;;;20.97;37.40
34983;BME280;21187;50.976;13.720;2022-07-10T13:49:59;98642.53;;;20.93;37.22
34983;BME280;21187;50.976;13.720;2022-07-10T13:55:01;98652.66;;;21.03;36.88
34983;BME280;21187;50.976;13.720;2022-07-10T14:00:06;98645.66;;;20.99;36.43
34983;BME280;21187;50.976;13.720;2022-07-10T14:05:14;98658.97;;;21.04;36.16
34983;BME280;21187;50.976;13.720;2022-07-10T14:10:16;98644.09;;;20.94;36.36
34983;BME280;21187;50.976;13.720;2022-07-10T14:15:18;98647.28;;;20.89;35.99
34983;BME280;21187;50.976;13.720;2022-07-10T14:20:20;98648.00;;;21.00;36.32
34983;BME280;21187;50.976;13.720;2022-07-10T14:25:23;98645.41;;;21.20;36.21
34983;BME280;21187;50.976;13.720;2022-07-10T14:30:26;98649.66;;;21.28;36.24
34983;BME280;21187;50.976;13.720;2022-07-10T14:35:28;98643.06;;;21.19;36.02
34983;BME280;21187;50.976;13.720;2022-07-10T14:40:30;98638.47;;;21.05;35.48
34983;BME280;21187;50.976;13.720;2022-07-10T14:45:32;98636.25;;;21.31;35.70
34983;BME280;21187;50.976;13.720;2022-07-10T14:50:54;98636.97;;;21.38;35.17
34983;BME280;21187;50.976;13.720;2022-07-10T14:55:56;98635.81;;;21.36;34.90
34983;BME280;21187;50.976;13.720;2022-07-10T15:00:58;98635.19;;;21.21;35.30
34983;BME280;21187;50.976;13.720;2022-07-10T15:06:00;98649.28;;;21.26;35.26
34983;BME280;21187;50.976;13.720;2022-07-10T15:11:02;98641.28;;;21.01;35.01
34983;BME280;21187;50.976;13.720;2022-07-10T15:16:06;98633.09;;;20.94;35.33
34983;BME280;21187;50.976;13.720;2022-07-10T15:21:09;98630.78;;;20.89;35.46
34983;BME280;21187;50.976;13.720;2022-07-10T15:26:13;98632.97;;;21.05;35.78
34983;BME280;21187;50.976;13.720;2022-07-10T15:31:14;98617.13;;;21.16;35.75
34983;BME280;21187;50.976;13.720;2022-07-10T15:36:16;98620.31;;;21.15;35.52
34983;BME280;21187;50.976;13.720;2022-07-10T15:41:20;98616.31;;;21.19;35.47
34983;BME280;21187;50.976;13.720;2022-07-10T15:46:22;98615.38;;;21.33;35.55
34983;BME280;21187;50.976;13.720;2022-07-10T15:51:24;98604.38;;;21.30;35.44
34983;BME280;21187;50.976;13.720;2022-07-10T15:56:26;98610.03;;;21.19;35.09
34983;BME280;21187;50.976;13.720;2022-07-10T16:01:28;98599.41;;;21.17;35.37
34983;BME280;21187;50.976;13.720;2022-07-10T16:06:31;98596.44;;;21.35;35.35
34983;BME280;21187;50.976;13.720;2022-07-10T16:11:33;98593.81;;;21.59;34.98
34983;BME280;21187;50.976;13.720;2022-07-10T16:16:35;98586.38;;;21.56;34.17
34983;BME280;21187;50.976;13.720;2022-07-10T16:21:38;98586.94;;;21.40;34.24
34983;BME280;21187;50.976;13.720;2022-07-10T16:26:40;98582.34;;;21.30;34.52
34983;BME280;21187;50.976;13.720;2022-07-10T16:31:49;98584.69;;;21.31;34.45
34983;BME280;21187;50.976;13.720;2022-07-10T16:36:51;98591.03;;;21.28;34.34
34983;BME280;21187;50.976;13.720;2022-07-10T16:41:53;98588.66;;;21.30;34.67
34983;BME280;21187;50.976;13.720;2022-07-10T16:46:55;98583.16;;;21.30;34.36
34983;BME280;21187;50.976;13.720;2022-07-10T16:51:57;98576.34;;;21.38;34.56
34983;BME280;21187;50.976;13.720;2022-07-10T16:57:00;98582.91;;;21.48;34.49
34983;BME280;21187;50.976;13.720;2022-07-10T17:02:03;98582.84;;;21.55;34.13
34983;BME280;21187;50.976;13.720;2022-07-10T17:07:06;98584.88;;;21.48;34.30
34983;BME280;21187;50.976;13.720;2022-07-10T17:12:09;98593.81;;;21.59;34.59
34983;BME280;21187;50.976;13.720;2022-07-10T17:17:11;98589.06;;;21.63;34.36
34983;BME280;21187;50.976;13.720;2022-07-10T17:22:13;98581.97;;;21.62;34.44
34983;BME280;21187;50.976;13.720;2022-07-10T17:27:15;98584.31;;;21.64;34.43
34983;BME280;21187;50.976;13.720;2022-07-10T17:32:18;98579.69;;;21.57;34.75
34983;BME280;21187;50.976;13.720;2022-07-10T17:37:21;98584.09;;;21.47;34.81
34983;BME280;21187;50.976;13.720;2022-07-10T17:42:22;98587.66;;;21.48;34.80
34983;BME280;21187;50.976;13.720;2022-07-10T17:47:24;98580.97;;;21.45;34.65
34983;BME280;21187;50.976;13.720;2022-07-10T17:52:26;98584.50;;;21.45;34.77
34983;BME280;21187;50.976;13.720;2022-07-10T17:57:28;98588.47;;;21.44;34.70
34983;BME280;21187;50.976;13.720;2022-07-10T18:02:30;98586.91;;;21.43;34.74
34983;BME280;21187;50.976;13.720;2022-07-10T18:07:32;98588.09;;;21.42;34.96
34983;BME280;21187;50.976;13.720;2022-07-10T18:12:34;98583.03;;;21.37;34.94
34983;BME280;21187;50.976;13.720;2022-07-10T18:17:36;98587.00;;;21.36;35.03
34983;BME280;21187;50.976;13.720;2022-07-10T18:22:38;98594.06;;;21.37;34.87
34983;BME280;21187;50.976;13.720;2022-07-10T18:27:40;98594.84;;;21.38;34.96
34983;BME280;21187;50.976;13.720;2022-07-10T18:32:42;98584.63;;;21.38;35.09
34983;BME280;21187;50.976;13.720;2022-07-10T18:38:03;98592.50;;;21.36;35.25
34983;BME280;21187;50.976;13.720;2022-07-10T18:43:04;98590.94;;;21.35;35.20
34983;BME280;21187;50.976;13.720;2022-07-10T18:48:08;98587.72;;;21.40;35.05
34983;BME280;21187;50.976;13.720;2022-07-10T18:53:10;98592.50;;;21.36;35.36
34983;BME280;21187;50.976;13.720;2022-07-10T18:58:12;98589.47;;;21.27;35.58
34983;BME280;21187;50.976;13.720;2022-07-10T19:03:14;98594.97;;;21.27;35.37
34983;BME280;21187;50.976;13.720;2022-07-10T19:08:17;98591.13;;;21.21;35.71
34983;BME280;21187;50.976;13.720;2022-07-10T19:13:20;98597.16;;;21.08;35.70
34983;BME280;21187;50.976;13.720;2022-07-10T19:18:22;98607.97;;;20.92;36.01
34983;BME280;21187;50.976;13.720;2022-07-10T19:23:24;98612.66;;;20.91;36.13
34983;BME280;21187;50.976;13.720;2022-07-10T19:28:26;98617.41;;;20.91;36.10
34983;BME280;21187;50.976;13.720;2022-07-10T19:33:28;98621.53;;;20.68;36.33
34983;BME280;21187;50.976;13.720;2022-07-10T19:38:30;98620.00;;;20.60;36.55
34983;BME280;21187;50.976;13.720;2022-07-10T19:43:33;98627.03;;;20.65;36.36
34983;BME280;21187;50.976;13.720;2022-07-10T19:48:36;98627.03;;;20.65;36.54
34983;BME280;21187;50.976;13.720;2022-07-10T19:53:39;98632.91;;;20.70;36.22
34983;BME280;21187;50.976;13.720;2022-07-10T19:58:42;98639.97;;;20.68;36.60
34983;BME280;21187;50.976;13.720;2022-07-10T20:03:43;98640.78;;;20.68;36.67
34983;BME280;21187;50.976;13.720;2022-07-10T20:08:46;98653.03;;;20.60;36.86
34983;BME280;21187;50.976;13.720;2022-07-10T20:13:50;98647.66;;;20.45;37.02
34983;BME280;21187;50.976;13.720;2022-07-10T20:18:52;98635.53;;;20.36;37.15
34983;BME280;21187;50.976;13.720;2022-07-10T20:23:54;98649.06;;;20.08;37.61
34983;BME280;21187;50.976;13.720;2022-07-10T20:28:56;98660.09;;;20.01;37.95
34983;BME280;21187;50.976;13.720;2022-07-10T20:33:57;98653.44;;;19.99;37.99
34983;BME280;21187;50.976;13.720;2022-07-10T20:38:59;98652.69;;;19.98;38.12
34983;BME280;21187;50.976;13.720;2022-07-10T20:44:01;98656.22;;;19.95;38.16
34983;BME280;21187;50.976;13.720;2022-07-10T20:49:06;98658.13;;;20.02;38.31
34983;BME280;21187;50.976;13.720;2022-07-10T20:54:08;98649.59;;;19.89;38.63
34983;BME280;21187;50.976;13.720;2022-07-10T20:59:09;98662.94;;;19.79;38.98
34983;BME280;21187;50.976;13.720;2022-07-10T21:04:11;98665.31;;;19.77;38.97
34983;BME280;21187;50.976;13.720;2022-07-10T21:09:13;98663.38;;;19.74;39.36
34983;BME280;21187;50.976;13.720;2022-07-10T21:14:15;98666.88;;;19.71;39.45
34983;BME280;21187;50.976;13.720;2022-07-10T21:19:17;98673.22;;;19.61;39.74
34983;BME280;21187;50.976;13.720;2022-07-10T21:24:19;98670.88;;;19.59;39.88
34983;BME280;21187;50.976;13.720;2022-07-10T21:29:21;98676.41;;;19.52;40.14
34983;BME280;21187;50.976;13.720;2022-07-10T21:34:22;98680.31;;;19.51;40.11
34983;BME280;21187;50.976;13.720;2022-07-10T21:39:24;98675.63;;;19.48;40.24
34983;BME280;21187;50.976;13.720;2022-07-10T21:44:26;98677.56;;;19.48;40.25
34983;BME280;21187;50.976;13.720;2022-07-10T21:49:28;98672.50;;;19.42;40.49
34983;BME280;21187;50.976;13.720;2022-07-10T21:54:30;98682.69;;;19.38;40.52
34983;BME280;21187;50.976;13.720;2022-07-10T21:59:32;98682.69;;;19.38;40.57
34983;BME280;21187;50.976;13.720;2022-07-10T22:04:33;98684.28;;;19.39;40.53
34983;BME280;21187;50.976;13.720;2022-07-10T22:09:35;98685.06;;;19.36;40.65
34983;BME280;21187;50.976;13.720;2022-07-10T22:14:37;98693.72;;;19.31;40.88
34983;BME280;21187;50.976;13.720;2022-07-10T22:19:39;98690.56;;;19.29;40.93
34983;BME280;21187;50.976;13.720;2022-07-10T22:24:41;98693.34;;;19.22;40.99
34983;BME280;21187;50.976;13.720;2022-07-10T22:29:43;98698.44;;;19.23;41.02
34983;BME280;21187;50.976;13.720;2022-07-10T22:34:46;98696.09;;;19.22;41.09
34983;BME280;21187;50.976;13.720;2022-07-10T22:39:48;98694.53;;;19.06;41.62
34983;BME280;21187;50.976;13.720;2022-07-10T22:44:50;98696.09;;;19.15;41.36
34983;BME280;21187;50.976;13.720;2022-07-10T22:49:52;98694.53;;;19.14;41.77
34983;BME280;21187;50.976;13.720;2022-07-10T22:54:53;98690.22;;;19.05;41.99
34983;BME280;21187;50.976;13.720;2022-07-10T22:59:56;98686.69;;;19.08;42.21
34983;BME280;21187;50.976;13.720;2022-07-10T23:04:58;98695.31;;;18.96;42.66
34983;BME280;21187;50.976;13.720;2022-07-10T23:10:00;98689.84;;;18.92;42.93
34983;BME280;21187;50.976;13.720;2022-07-10T23:15:03;98679.63;;;18.86;43.45
34983;BME280;21187;50.976;13.720;2022-07-10T23:20:06;98682.00;;;18.73;44.01
34983;BME280;21187;50.976;13.720;2022-07-10T23:25:09;98681.59;;;18.71;44.27
34983;BME280;21187;50.976;13.720;2022-07-10T23:30:11;98691.38;;;18.68;44.55
34983;BME280;21187;50.976;13.720;2022-07-10T23:35:12;98687.47;;;18.66;44.70
34983;BME280;21187;50.976;13.720;2022-07-10T23:40:14;98698.81;;;18.60;45.03
34983;BME280;21187;50.976;13.720;2022-07-10T23:45:16;98700.00;;;18.56;45.20
34983;BME280;21187;50.976;13.720;2022-07-10T23:50:19;98692.94;;;18.44;45.71
34983;BME280;21187;50.976;13.720;2022-07-10T23:55:24;98694.47;;;18.34;45.78
